Terminal Aerodrome Forecast
Issued by NWS

Current Version | Previous Version | Text Only | Print | Product List | Glossary Off
Versions: 1 2 3 4 5 6 7 8 9 10 11 12 13 14 15 16 17 18 19 20 21 22 23 24 25 26 27 28 29 30 31 32 33 34 35 36 37 38 39 40 41 42 43 44 45 46 47 48 49 50

000
FTUS41 KRNK 170525
TAFLWB
TAF
KLWB 170525Z 1706/1806 00000KT 5SM BR SCT035 OVC060
      TEMPO 1706/1710 2SM BR SCT005 BKN035
     FM171600 14003KT P6SM SCT007 OVC025
     FM171800 23003KT P6SM BKN040
     FM180000 00000KT P6SM SCT035=

USA.gov is the U.S. government's official web portal to all federal, state and local government web resources and services.